createdAt,value
2022-11-28T00:05:03.522Z,7.90
2022-11-28T00:15:07.438Z,7.23
2022-11-28T00:25:11.800Z,6.90
2022-11-28T00:35:14.851Z,6.23
2022-11-28T00:45:19.247Z,5.40
2022-11-28T00:55:22.297Z,5.47
2022-11-28T01:05:26.915Z,5.85
2022-11-28T01:15:29.860Z,5.93
2022-11-28T01:25:34.277Z,6.28
2022-11-28T01:35:37.195Z,5.87
2022-11-28T01:45:41.529Z,5.72
2022-11-28T01:55:50.798Z,6.37
2022-11-28T02:05:55.661Z,6.30
2022-11-28T02:16:13.117Z,5.55
2022-11-28T02:26:49.450Z,6.50
2022-11-28T02:37:02.065Z,5.82
2022-11-28T02:47:09.806Z,6.07
2022-11-28T02:57:14.223Z,6.43
2022-11-28T03:07:34.070Z,6.83
2022-11-28T03:17:53.579Z,5.78
2022-11-28T03:28:03.863Z,6.82
2022-11-28T03:38:14.147Z,6.85
2022-11-28T03:48:22.745Z,6.90
2022-11-28T03:58:31.325Z,6.90
2022-11-28T04:08:41.762Z,6.05
2022-11-28T04:18:53.763Z,6.55
2022-11-28T04:28:59.732Z,6.95
2022-11-28T04:39:06.520Z,7.85
2022-11-28T04:49:09.675Z,8.10
2022-11-28T04:59:15.853Z,8.50
2022-11-28T05:09:18.875Z,8.90
2022-11-28T05:19:23.181Z,9.18
2022-11-28T05:29:26.094Z,11.37
2022-11-28T05:39:30.442Z,10.77
2022-11-28T05:49:33.708Z,11.33
2022-11-28T05:59:38.458Z,12.18
2022-11-28T06:09:41.723Z,12.38
2022-11-28T06:19:46.418Z,14.27
2022-11-28T06:29:49.421Z,13.87
2022-11-28T06:39:53.821Z,14.43
2022-11-28T06:49:57.148Z,11.20
2022-11-28T07:00:01.434Z,16.60
2022-11-28T07:10:04.968Z,16.87
2022-11-28T07:20:11.031Z,14.73
2022-11-28T07:30:14.773Z,16.63
2022-11-28T07:40:20.706Z,18.30
2022-11-28T07:50:23.744Z,16.70
2022-11-28T08:00:28.241Z,16.73
2022-11-28T08:10:31.221Z,17.30
2022-11-28T08:20:35.550Z,18.83
2022-11-28T08:30:38.725Z,13.40
2022-11-28T08:40:43.103Z,17.77
2022-11-28T08:50:48.335Z,18.97
2022-11-28T09:00:52.777Z,18.65
2022-11-28T09:10:55.858Z,20.23
2022-11-28T09:21:01.295Z,17.08
2022-11-28T09:31:06.193Z,18.15
2022-11-28T09:41:38.586Z,16.90
2022-11-28T09:51:52.213Z,16.98
2022-11-28T10:02:05.862Z,19.05
2022-11-28T10:12:23.364Z,21.77
2022-11-28T10:22:37.006Z,18.98
2022-11-28T10:32:43.665Z,20.27
2022-11-28T10:42:56.539Z,20.10
2022-11-28T10:53:04.296Z,23.13
2022-11-28T11:03:14.724Z,24.30
2022-11-28T11:13:20.357Z,25.77
2022-11-28T11:23:24.681Z,27.20
2022-11-28T11:33:33.543Z,28.20
2022-11-28T11:43:37.859Z,30.42
2022-11-28T11:53:41.179Z,32.03
2022-11-28T12:03:54.481Z,34.05
2022-11-28T12:14:00.087Z,35.30
2022-11-28T12:24:11.242Z,34.45
2022-11-28T12:34:29.326Z,35.60
2022-11-28T12:44:43.880Z,36.72
2022-11-28T12:55:04.335Z,39.90
2022-11-28T13:05:37.810Z,39.47
2022-11-28T13:16:00.691Z,39.60
2022-11-28T13:26:12.062Z,39.80
2022-11-28T13:46:47.434Z,36.58
2022-11-28T13:57:06.520Z,37.33
2022-11-28T14:07:34.864Z,40.42
2022-11-28T14:17:59.042Z,36.80
2022-11-28T14:28:06.586Z,35.90
2022-11-28T14:38:42.338Z,39.55
2022-11-28T14:49:20.656Z,40.53
2022-11-28T14:59:29.110Z,37.55
2022-11-28T15:09:42.756Z,38.70
2022-11-28T15:19:49.055Z,34.67
2022-11-28T15:30:00.323Z,37.13
2022-11-28T15:40:06.572Z,43.10
2022-11-28T15:50:19.615Z,37.78
2022-11-28T16:00:24.376Z,36.50
2022-11-28T16:10:33.643Z,34.58
2022-11-28T16:20:38.241Z,34.30
2022-11-28T16:30:47.545Z,33.93
2022-11-28T16:40:51.055Z,34.67
2022-11-28T16:51:36.469Z,35.45
2022-11-28T17:01:42.299Z,35.08
2022-11-28T17:11:48.152Z,32.45
2022-11-28T17:21:54.523Z,30.85
2022-11-28T17:31:59.045Z,26.38
2022-11-28T17:42:03.623Z,26.50
2022-11-28T17:52:06.572Z,25.03
2022-11-28T18:02:12.488Z,27.38
2022-11-28T18:12:15.547Z,32.38
2022-11-28T18:22:19.829Z,29.35
2022-11-28T18:32:22.828Z,22.43
2022-11-28T18:42:27.562Z,31.27
2022-11-28T18:52:30.629Z,24.37
2022-11-28T19:02:35.856Z,31.45
2022-11-28T19:22:43.662Z,38.70
2022-11-28T19:32:46.773Z,30.23
2022-11-28T19:42:51.340Z,41.58
2022-11-28T19:52:54.551Z,53.20
2022-11-28T20:02:58.982Z,46.78
2022-11-28T20:23:07.122Z,57.22
2022-11-28T20:33:10.052Z,55.37
2022-11-28T20:43:15.420Z,48.58
2022-11-28T20:53:23.649Z,51.73
2022-11-28T21:03:31.117Z,46.40
2022-11-28T21:13:34.123Z,47.10
2022-11-28T21:23:38.861Z,48.85
2022-11-28T21:33:41.995Z,49.53
2022-11-28T21:43:46.294Z,57.67
2022-11-28T21:53:49.531Z,46.40
2022-11-28T22:03:59.027Z,55.20
2022-11-28T22:14:05.272Z,50.40
2022-11-28T22:24:10.495Z,49.05
2022-11-28T22:34:14.856Z,52.38
2022-11-28T22:44:19.199Z,50.83
2022-11-28T22:54:22.451Z,47.87
2022-11-28T23:04:28.254Z,43.60
2022-11-28T23:14:31.450Z,59.53
2022-11-28T23:24:36.020Z,52.92
2022-11-28T23:34:39.414Z,57.10
2022-11-28T23:44:43.898Z,49.70
2022-11-28T23:54:47.046Z,55.57
